Terminal Aerodrome Forecast
Issued by NWS

Home | Current Version | Previous Version | Text Only | Print | Product List | Glossary On
Versions: 1 2 3 4 5 6 7 8 9 10 11 12 13 14 15 16 17
000
FTUS43 KLSX 230500
TAFSUS
TAF
KSUS 230520Z 2306/2406 20005KT P6SM VCTS FEW040CB SCT120 BKN250
     FM231000 VRB04KT 4SM BR BKN030
     FM231400 02010KT P6SM SCT040
     FM240100 VRB04KT P6SM SKC=

USA.gov is the U.S. government's official web portal to all federal, state and local government web resources and services.